createdAt,value
2019-03-20T00:00:52.900Z,80.80
2019-03-20T00:03:21.821Z,81.20
2019-03-20T00:05:49.421Z,82.10
2019-03-20T00:08:17.066Z,82.50
2019-03-20T00:10:44.672Z,82.70
2019-03-20T00:13:12.263Z,83.00
2019-03-20T00:15:39.809Z,82.80
2019-03-20T00:18:07.398Z,82.50
2019-03-20T00:20:34.983Z,82.10
2019-03-20T00:23:02.509Z,82.10
2019-03-20T00:25:31.389Z,83.00
2019-03-20T00:27:58.908Z,83.80
2019-03-20T00:30:26.503Z,84.00
2019-03-20T00:32:54.294Z,84.00
2019-03-20T00:35:22.301Z,84.30
2019-03-20T00:37:49.782Z,84.50
2019-03-20T00:40:17.264Z,84.50
2019-03-20T00:42:44.698Z,84.50
2019-03-20T00:45:12.400Z,84.30
2019-03-20T00:47:39.924Z,84.30
2019-03-20T00:50:10.892Z,84.00
2019-03-20T00:52:38.509Z,84.00
2019-03-20T00:55:07.517Z,83.80
2019-03-20T00:57:35.074Z,83.60
2019-03-20T01:00:05.094Z,83.60
2019-03-20T01:02:32.979Z,83.40
2019-03-20T01:05:08.487Z,83.60
2019-03-20T01:07:29.814Z,83.40
2019-03-20T01:09:57.321Z,83.40
2019-03-20T01:12:24.777Z,83.80
2019-03-20T01:14:52.406Z,83.80
2019-03-20T01:17:19.965Z,83.80
2019-03-20T01:19:47.439Z,83.80
2019-03-20T01:22:15.039Z,84.10
2019-03-20T01:24:42.698Z,84.10
2019-03-20T01:27:11.788Z,84.10
2019-03-20T01:29:39.705Z,84.30
2019-03-20T01:32:07.175Z,84.30
2019-03-20T01:34:35.018Z,84.10
2019-03-20T01:37:02.737Z,84.10
2019-03-20T01:39:31.484Z,84.00
2019-03-20T01:41:59.042Z,84.00
2019-03-20T01:44:26.464Z,84.70
2019-03-20T01:46:54.098Z,84.90
2019-03-20T01:49:21.565Z,84.90
2019-03-20T01:51:49.022Z,84.50
2019-03-20T01:54:16.593Z,84.10
2019-03-20T01:56:44.118Z,84.10
2019-03-20T01:59:11.605Z,84.30
2019-03-20T02:01:39.073Z,84.10
2019-03-20T02:04:06.601Z,84.00
2019-03-20T02:06:34.249Z,84.00
2019-03-20T02:09:01.787Z,84.00
2019-03-20T02:11:31.221Z,84.50
2019-03-20T02:13:58.797Z,84.90
2019-03-20T02:16:26.494Z,85.30
2019-03-20T02:18:54.285Z,85.60
2019-03-20T02:21:21.775Z,85.60
2019-03-20T02:23:49.270Z,86.00
2019-03-20T02:26:17.017Z,86.20
2019-03-20T02:28:44.652Z,86.00
2019-03-20T02:31:12.220Z,85.60
2019-03-20T02:33:39.795Z,86.00
2019-03-20T02:36:07.522Z,85.60
2019-03-20T02:38:35.049Z,85.30
2019-03-20T02:41:02.599Z,85.10
2019-03-20T02:43:30.192Z,85.30
2019-03-20T02:45:57.693Z,85.30
2019-03-20T02:48:25.381Z,85.50
2019-03-20T02:50:52.890Z,85.80
2019-03-20T02:53:20.359Z,85.80
2019-03-20T02:55:48.882Z,86.00
2019-03-20T02:58:16.496Z,86.20
2019-03-20T03:00:44.056Z,86.00
2019-03-20T03:03:12.542Z,85.80
2019-03-20T03:05:40.099Z,85.60
2019-03-20T03:08:07.673Z,85.60
2019-03-20T03:10:35.216Z,85.60
2019-03-20T03:13:02.659Z,85.80
2019-03-20T03:15:30.154Z,86.40
2019-03-20T03:17:57.593Z,87.50
2019-03-20T03:20:25.087Z,88.40
2019-03-20T03:22:52.614Z,88.80
2019-03-20T03:25:20.188Z,89.40
2019-03-20T03:27:48.106Z,89.60
2019-03-20T03:30:15.754Z,89.70
2019-03-20T03:32:43.328Z,89.60
2019-03-20T03:35:16.174Z,89.60
2019-03-20T03:37:40.314Z,89.00
2019-03-20T03:40:08.594Z,88.60
2019-03-20T03:42:36.069Z,88.40
2019-03-20T03:45:06.565Z,88.10
2019-03-20T03:47:34.190Z,87.70
2019-03-20T03:50:01.646Z,87.70
2019-03-20T03:52:29.219Z,87.50
2019-03-20T03:54:56.750Z,87.30
2019-03-20T03:57:24.382Z,87.10
2019-03-20T03:59:51.917Z,86.90
2019-03-20T04:02:34.708Z,86.60
2019-03-20T04:05:02.192Z,85.80
2019-03-20T04:07:29.808Z,85.60
2019-03-20T04:09:57.280Z,86.40
2019-03-20T04:12:24.758Z,86.90
2019-03-20T04:14:52.198Z,87.10
2019-03-20T04:17:21.881Z,87.10
2019-03-20T04:19:49.481Z,86.80
2019-03-20T04:22:16.946Z,87.10
2019-03-20T04:24:44.408Z,87.90
2019-03-20T04:27:11.858Z,88.10
2019-03-20T04:29:39.326Z,88.10
2019-03-20T04:32:06.779Z,88.10
2019-03-20T04:34:34.381Z,88.20
2019-03-20T04:37:01.920Z,88.40
2019-03-20T04:39:29.477Z,88.20
2019-03-20T04:41:57.209Z,87.90
2019-03-20T04:44:24.757Z,87.90
2019-03-20T04:46:52.279Z,88.10
2019-03-20T04:49:19.962Z,88.10
2019-03-20T04:51:47.433Z,88.40
2019-03-20T04:54:14.934Z,89.00
2019-03-20T04:56:42.398Z,89.40
2019-03-20T04:59:09.934Z,89.20
2019-03-20T05:01:37.501Z,89.00
2019-03-20T05:04:05.035Z,88.80
2019-03-20T05:06:32.532Z,88.60
2019-03-20T05:08:59.996Z,88.20
2019-03-20T05:11:27.482Z,87.70
2019-03-20T05:13:54.998Z,87.30
2019-03-20T05:16:22.542Z,87.10
2019-03-20T05:18:50.121Z,87.10
2019-03-20T05:21:17.649Z,87.30
2019-03-20T05:23:45.120Z,87.50
2019-03-20T05:26:12.698Z,87.70
2019-03-20T05:28:40.195Z,87.70
2019-03-20T05:31:08.729Z,87.70
2019-03-20T05:33:36.241Z,87.70
2019-03-20T05:36:03.752Z,87.50
2019-03-20T05:38:31.211Z,87.10
2019-03-20T05:40:58.688Z,87.50
2019-03-20T05:43:26.229Z,87.50
2019-03-20T05:45:53.911Z,87.50
2019-03-20T05:48:21.370Z,87.50
2019-03-20T05:50:48.862Z,87.70
2019-03-20T05:53:16.286Z,87.50
2019-03-20T05:55:43.773Z,87.70
2019-03-20T05:58:11.257Z,88.20
2019-03-20T06:00:38.753Z,88.60
2019-03-20T06:03:06.207Z,88.80
2019-03-20T06:05:33.905Z,88.10
2019-03-20T06:08:01.388Z,88.10
2019-03-20T06:10:28.859Z,86.40
2019-03-20T06:12:56.425Z,83.00
2019-03-20T06:15:24.682Z,81.20
2019-03-20T06:17:52.271Z,77.30
2019-03-20T06:20:19.696Z,71.50
2019-03-20T06:22:47.227Z,65.50
2019-03-20T06:25:14.774Z,59.90
2019-03-20T06:27:42.371Z,58.00
2019-03-20T06:30:12.845Z,54.90
2019-03-20T06:32:40.661Z,51.00
2019-03-20T06:35:09.258Z,47.80
2019-03-20T06:37:36.774Z,45.80
2019-03-20T06:40:04.621Z,43.00
2019-03-20T06:42:32.113Z,39.80
2019-03-20T06:44:59.765Z,38.20
2019-03-20T06:47:27.281Z,35.70
2019-03-20T06:49:54.761Z,34.20
2019-03-20T06:52:23.399Z,32.40
2019-03-20T06:54:50.814Z,31.20
2019-03-20T06:57:18.347Z,29.70
2019-03-20T07:00:36.549Z,28.70
2019-03-20T07:03:06.187Z,27.50
2019-03-20T07:05:58.077Z,26.20
2019-03-20T07:08:28.153Z,25.80
2019-03-20T07:11:16.772Z,25.00
2019-03-20T07:13:44.281Z,25.00
2019-03-20T07:16:11.721Z,24.30
2019-03-20T07:18:39.282Z,23.60
2019-03-20T07:21:06.824Z,22.40
2019-03-20T07:23:34.374Z,22.00
2019-03-20T07:26:01.854Z,20.50
2019-03-20T07:28:29.412Z,19.90
2019-03-20T07:30:56.989Z,19.20
2019-03-20T07:33:31.418Z,18.30
2019-03-20T07:35:59.446Z,17.40
2019-03-20T07:38:27.009Z,16.70
2019-03-20T07:40:54.711Z,16.00
2019-03-20T07:43:22.879Z,14.90
2019-03-20T07:45:50.586Z,14.50
2019-03-20T07:48:22.387Z,14.50
2019-03-20T07:50:47.514Z,13.80
2019-03-20T07:53:14.974Z,13.80
2019-03-20T07:55:44.743Z,13.60
2019-03-20T07:58:12.238Z,13.20
2019-03-20T08:00:39.772Z,12.40
2019-03-20T08:03:07.252Z,11.90
2019-03-20T08:05:34.886Z,11.10
2019-03-20T08:08:07.223Z,11.60
2019-03-20T08:10:31.887Z,11.00
2019-03-20T08:12:59.485Z,9.90
2019-03-20T08:15:26.947Z,9.90
2019-03-20T08:17:54.597Z,10.00
2019-03-20T08:20:22.034Z,9.20
2019-03-20T08:22:49.469Z,9.00
2019-03-20T08:25:16.996Z,8.80
2019-03-20T08:27:44.434Z,8.70
2019-03-20T08:30:13.855Z,8.50
2019-03-20T08:32:41.570Z,8.10
2019-03-20T08:35:09.432Z,7.00
2019-03-20T08:37:36.995Z,6.90
2019-03-20T08:40:05.101Z,7.70
2019-03-20T08:42:32.949Z,7.40
2019-03-20T08:45:00.464Z,7.10
2019-03-20T08:47:28.065Z,6.70
2019-03-20T08:49:55.566Z,6.50
2019-03-20T08:52:23.091Z,5.80
2019-03-20T08:54:50.570Z,5.70
2019-03-20T08:57:18.173Z,6.20
2019-03-20T08:59:45.771Z,5.80
2019-03-20T09:02:14.429Z,6.00
2019-03-20T09:04:42.021Z,5.80
2019-03-20T09:07:09.785Z,5.60
2019-03-20T09:09:37.254Z,6.00
2019-03-20T09:12:04.787Z,5.40
2019-03-20T09:14:32.250Z,5.20
2019-03-20T09:16:59.762Z,5.10
2019-03-20T09:19:27.638Z,4.90
2019-03-20T09:21:55.097Z,4.60
2019-03-20T09:24:22.608Z,4.50
2019-03-20T09:26:58.213Z,4.20
2019-03-20T09:29:35.588Z,3.90
2019-03-20T09:31:55.224Z,4.10
2019-03-20T09:34:23.006Z,3.80
2019-03-20T09:36:50.667Z,3.70
2019-03-20T09:39:18.168Z,3.50
2019-03-20T09:41:45.666Z,3.40
2019-03-20T09:44:13.241Z,2.60
2019-03-20T09:46:40.790Z,2.40
2019-03-20T09:49:08.258Z,2.40
2019-03-20T09:51:36.742Z,2.90
2019-03-20T09:54:04.472Z,2.90
2019-03-20T09:56:32.088Z,2.90
2019-03-20T09:58:59.746Z,1.50
2019-03-20T10:01:27.320Z,2.30
2019-03-20T10:03:55.116Z,2.50
2019-03-20T10:06:22.845Z,2.90
2019-03-20T10:08:54.451Z,2.80
2019-03-20T10:11:19.873Z,2.30
2019-03-20T10:13:47.369Z,2.80
2019-03-20T10:16:14.874Z,2.20
2019-03-20T10:18:42.321Z,2.20
2019-03-20T10:21:09.871Z,2.40
2019-03-20T10:23:37.375Z,2.90
2019-03-20T10:26:04.916Z,2.30
2019-03-20T10:28:32.414Z,2.40
2019-03-20T10:30:59.910Z,2.80
2019-03-20T10:33:27.675Z,2.80
2019-03-20T10:35:55.320Z,2.70
2019-03-20T10:38:22.813Z,2.40
2019-03-20T10:40:50.337Z,2.10
2019-03-20T10:43:17.842Z,2.00
2019-03-20T10:45:45.405Z,1.60
2019-03-20T10:48:13.066Z,1.70
2019-03-20T10:50:40.563Z,1.60
2019-03-20T10:53:08.255Z,1.50
2019-03-20T10:55:35.768Z,1.00
2019-03-20T10:58:04.215Z,1.70
2019-03-20T11:00:31.784Z,1.40
2019-03-20T11:02:59.412Z,2.00
2019-03-20T11:05:26.985Z,1.40
2019-03-20T11:07:54.568Z,1.60
2019-03-20T11:10:22.465Z,1.50
2019-03-20T11:12:50.166Z,0.90
2019-03-20T11:15:17.858Z,1.20
2019-03-20T11:17:45.322Z,1.10
2019-03-20T11:20:14.279Z,1.20
2019-03-20T11:22:42.216Z,0.80
2019-03-20T11:25:10.868Z,0.80
2019-03-20T11:27:38.482Z,1.10
2019-03-20T11:30:11.087Z,1.20
2019-03-20T11:32:40.090Z,1.60
2019-03-20T11:35:08.136Z,0.90
2019-03-20T11:37:35.652Z,0.80
2019-03-20T11:40:05.455Z,1.40
2019-03-20T11:42:33.231Z,1.30
2019-03-20T11:45:00.685Z,1.00
2019-03-20T11:47:28.162Z,1.30
2019-03-20T11:49:55.755Z,1.10
2019-03-20T11:52:23.273Z,0.80
2019-03-20T11:54:50.970Z,0.50
2019-03-20T11:57:18.493Z,0.50
2019-03-20T11:59:46.042Z,0.50
2019-03-20T12:02:13.781Z,99.90
2019-03-20T12:04:41.674Z,0.50
2019-03-20T12:07:09.441Z,0.50
2019-03-20T12:09:41.249Z,0.50
2019-03-20T12:12:06.820Z,99.90
2019-03-20T12:14:34.428Z,99.90
2019-03-20T12:17:02.016Z,99.90
2019-03-20T12:19:29.524Z,99.90
2019-03-20T12:21:57.418Z,0.90
2019-03-20T12:24:25.314Z,1.50
2019-03-20T12:26:52.921Z,1.30
2019-03-20T12:29:23.098Z,0.50
2019-03-20T12:31:50.830Z,0.70
2019-03-20T12:34:18.678Z,0.60
2019-03-20T12:36:46.360Z,0.50
2019-03-20T12:39:14.121Z,0.50
2019-03-20T12:41:41.840Z,0.50
2019-03-20T12:44:09.751Z,0.90
2019-03-20T12:46:41.793Z,0.50
2019-03-20T12:49:06.814Z,0.70
2019-03-20T12:51:34.831Z,0.70
2019-03-20T12:54:02.329Z,99.90
2019-03-20T12:56:30.294Z,0.80
2019-03-20T12:58:57.953Z,1.20
2019-03-20T13:01:25.655Z,0.70
2019-03-20T13:03:53.422Z,0.90
2019-03-20T13:06:21.232Z,1.20
2019-03-20T13:08:48.766Z,0.80
2019-03-20T13:11:16.402Z,0.50
2019-03-20T13:13:44.138Z,0.50
2019-03-20T13:16:11.952Z,1.20
2019-03-20T13:18:39.487Z,1.40
2019-03-20T13:21:07.215Z,0.90
2019-03-20T13:23:36.148Z,0.50
2019-03-20T13:26:03.900Z,0.50
2019-03-20T13:28:31.821Z,0.50
2019-03-20T13:31:02.253Z,0.90
2019-03-20T13:33:30.253Z,0.50
2019-03-20T13:35:57.872Z,0.80
2019-03-20T13:38:25.380Z,1.30
2019-03-20T13:40:53.442Z,0.90
2019-03-20T13:43:21.083Z,0.80
2019-03-20T13:45:48.619Z,1.10
2019-03-20T13:48:16.162Z,0.80
2019-03-20T13:50:43.801Z,1.70
2019-03-20T13:53:11.417Z,1.40
2019-03-20T13:55:38.954Z,1.20
2019-03-20T13:58:06.529Z,1.10
2019-03-20T14:00:34.064Z,2.10
2019-03-20T14:03:01.559Z,2.20
2019-03-20T14:05:29.020Z,2.60
2019-03-20T14:07:57.036Z,1.90
2019-03-20T14:10:25.819Z,2.40
2019-03-20T14:12:53.706Z,2.40
2019-03-20T14:15:21.269Z,3.10
2019-03-20T14:17:48.912Z,2.40
2019-03-20T14:20:18.593Z,2.60
2019-03-20T14:22:46.624Z,2.10
2019-03-20T14:25:14.130Z,2.60
2019-03-20T14:27:41.751Z,2.90
2019-03-20T14:30:15.037Z,4.10
2019-03-20T14:32:42.586Z,4.10
2019-03-20T14:35:10.130Z,3.40
2019-03-20T14:37:37.658Z,3.10
2019-03-20T14:40:05.263Z,3.40
2019-03-20T14:42:32.934Z,3.10
2019-03-20T14:45:00.529Z,3.10
2019-03-20T14:47:27.997Z,3.00
2019-03-20T14:49:56.495Z,3.30
2019-03-20T14:52:24.423Z,3.70
2019-03-20T14:54:51.886Z,4.50
2019-03-20T14:57:19.954Z,4.00
2019-03-20T14:59:47.634Z,3.80
2019-03-20T15:02:15.269Z,4.20
2019-03-20T15:04:42.853Z,4.30
2019-03-20T15:07:10.597Z,4.70
2019-03-20T15:09:38.277Z,4.40
2019-03-20T15:12:06.010Z,5.30
2019-03-20T15:14:33.671Z,6.10
2019-03-20T15:17:01.129Z,6.40
2019-03-20T15:19:28.609Z,7.10
2019-03-20T15:21:56.122Z,7.10
2019-03-20T15:24:23.854Z,7.30
2019-03-20T15:26:57.853Z,7.80
2019-03-20T15:29:25.579Z,8.40
2019-03-20T15:31:53.384Z,8.40
2019-03-20T15:34:22.308Z,8.60
2019-03-20T15:36:51.134Z,9.40
2019-03-20T15:39:18.731Z,9.20
2019-03-20T15:41:46.488Z,9.40
2019-03-20T15:44:14.120Z,9.70
2019-03-20T15:46:41.817Z,10.10
2019-03-20T15:49:09.312Z,10.50
2019-03-20T15:51:36.846Z,9.70
2019-03-20T15:54:05.341Z,9.90
2019-03-20T15:56:33.569Z,9.90
2019-03-20T15:59:01.142Z,10.50
2019-03-20T16:01:28.684Z,11.00
2019-03-20T16:03:56.248Z,11.30
2019-03-20T16:06:23.778Z,12.60
2019-03-20T16:09:13.198Z,13.10
2019-03-20T16:11:43.928Z,13.50
2019-03-20T16:14:11.561Z,14.00
2019-03-20T16:16:39.069Z,13.90
2019-03-20T16:19:06.578Z,14.10
2019-03-20T16:21:34.134Z,14.80
2019-03-20T16:24:01.695Z,15.70
2019-03-20T16:26:29.582Z,15.70
2019-03-20T16:28:57.114Z,16.10
2019-03-20T16:31:27.714Z,16.90
2019-03-20T16:33:56.165Z,17.90
2019-03-20T16:36:23.679Z,17.80
2019-03-20T16:38:51.620Z,18.50
2019-03-20T16:41:19.304Z,18.90
2019-03-20T16:43:47.006Z,19.30
2019-03-20T16:46:14.585Z,19.80
2019-03-20T16:48:42.105Z,20.40
2019-03-20T16:51:10.573Z,21.00
2019-03-20T16:53:39.018Z,21.40
2019-03-20T16:56:06.540Z,21.50
2019-03-20T16:58:34.069Z,21.60
2019-03-20T17:01:01.544Z,22.20
2019-03-20T17:03:29.014Z,22.60
2019-03-20T17:05:56.485Z,22.50
2019-03-20T17:08:25.053Z,23.20
2019-03-20T17:10:52.612Z,23.50
2019-03-20T17:13:20.097Z,24.20
2019-03-20T17:15:47.605Z,24.70
2019-03-20T17:18:15.059Z,24.90
2019-03-20T17:20:42.656Z,25.40
2019-03-20T17:23:10.399Z,26.10
2019-03-20T17:25:37.996Z,26.50
2019-03-20T17:28:05.588Z,27.10
2019-03-20T17:30:34.292Z,27.10
2019-03-20T17:33:01.834Z,27.90
2019-03-20T17:35:29.551Z,28.40
2019-03-20T17:37:57.130Z,28.60
2019-03-20T17:40:24.743Z,29.10
2019-03-20T17:42:52.323Z,29.60
2019-03-20T17:45:20.198Z,29.80
2019-03-20T17:47:47.854Z,30.10
2019-03-20T17:50:17.860Z,30.70
2019-03-20T17:52:45.381Z,31.00
2019-03-20T17:55:12.849Z,32.40
2019-03-20T17:57:41.322Z,33.40
2019-03-20T18:00:11.836Z,34.10
2019-03-20T18:02:39.424Z,34.40
2019-03-20T18:05:07.354Z,36.20
2019-03-20T18:07:35.006Z,36.50
2019-03-20T18:10:02.481Z,36.50
2019-03-20T18:12:31.182Z,36.60
2019-03-20T18:14:58.687Z,37.90
2019-03-20T18:17:26.499Z,38.90
2019-03-20T18:19:57.774Z,40.30
2019-03-20T18:22:26.159Z,40.50
2019-03-20T18:24:53.767Z,40.80
2019-03-20T18:27:21.311Z,41.40
2019-03-20T18:29:48.799Z,42.10
2019-03-20T18:32:16.274Z,42.40
2019-03-20T18:34:43.859Z,42.30
2019-03-20T18:37:11.403Z,42.40
2019-03-20T18:39:39.027Z,42.60
2019-03-20T18:42:06.489Z,42.90
2019-03-20T18:44:34.126Z,44.60
2019-03-20T18:47:01.673Z,45.50
2019-03-20T18:49:29.146Z,45.50
2019-03-20T18:51:56.684Z,45.80
2019-03-20T18:54:24.213Z,46.40
2019-03-20T18:56:51.670Z,47.20
2019-03-20T18:59:19.306Z,46.70
2019-03-20T19:01:46.775Z,47.30
2019-03-20T19:04:14.433Z,47.50
2019-03-20T19:06:42.074Z,47.60
2019-03-20T19:09:09.885Z,48.40
2019-03-20T19:11:37.965Z,48.50
2019-03-20T19:14:05.571Z,49.40
2019-03-20T19:16:33.148Z,49.00
2019-03-20T19:19:00.756Z,48.80
2019-03-20T19:21:28.314Z,49.70
2019-03-20T19:23:56.002Z,50.00
2019-03-20T19:26:23.559Z,50.80
2019-03-20T19:28:51.247Z,51.40
2019-03-20T19:31:18.732Z,51.70
2019-03-20T19:33:46.279Z,52.30
2019-03-20T19:39:20.945Z,52.90
2019-03-20T19:41:48.705Z,53.20
2019-03-20T19:44:16.636Z,53.40
2019-03-20T19:46:44.325Z,53.70
2019-03-20T19:49:12.130Z,54.60
2019-03-20T19:51:39.628Z,54.80
2019-03-20T19:54:07.357Z,55.20
2019-03-20T19:56:34.838Z,55.40
2019-03-20T19:59:03.304Z,55.80
2019-03-20T20:01:30.915Z,56.10
2019-03-20T20:03:58.772Z,56.00
2019-03-20T20:06:26.424Z,56.30
2019-03-20T20:08:54.096Z,57.20
2019-03-20T20:11:23.001Z,57.70
2019-03-20T20:13:51.562Z,57.40
2019-03-20T20:16:19.021Z,57.80
2019-03-20T20:18:46.646Z,58.30
2019-03-20T20:21:14.230Z,58.10
2019-03-20T20:23:41.740Z,58.90
2019-03-20T20:26:09.371Z,59.20
2019-03-20T20:28:36.951Z,59.50
2019-03-20T20:31:04.484Z,59.80
2019-03-20T20:33:32.006Z,59.80
2019-03-20T20:35:59.662Z,59.90
2019-03-20T20:38:27.425Z,59.80
2019-03-20T20:40:55.144Z,60.90
2019-03-20T20:43:22.890Z,61.60
2019-03-20T20:45:50.488Z,62.00
2019-03-20T20:48:18.022Z,62.50
2019-03-20T20:50:45.562Z,62.90
2019-03-20T20:53:13.055Z,63.50
2019-03-20T20:55:40.604Z,63.70
2019-03-20T20:58:08.164Z,63.80
2019-03-20T21:00:35.642Z,63.70
2019-03-20T21:03:03.222Z,63.50
2019-03-20T21:05:30.761Z,64.00
2019-03-20T21:07:58.281Z,64.80
2019-03-20T21:10:25.851Z,64.80
2019-03-20T21:12:56.852Z,65.30
2019-03-20T21:15:46.555Z,66.30
2019-03-20T21:18:56.705Z,66.80
2019-03-20T21:21:52.976Z,66.80
2019-03-20T21:24:23.363Z,66.80
2019-03-20T21:27:41.377Z,66.60
2019-03-20T21:30:53.462Z,66.80
2019-03-20T21:33:54.191Z,67.60
2019-03-20T21:36:58.891Z,68.30
2019-03-20T21:39:26.877Z,68.50
2019-03-20T21:42:42.840Z,68.50
2019-03-20T21:45:31.832Z,68.30
2019-03-20T21:47:59.873Z,68.50
2019-03-20T21:51:21.349Z,68.90
2019-03-20T21:54:36.856Z,69.10
2019-03-20T21:57:51.918Z,69.60
2019-03-20T22:00:45.592Z,69.80
2019-03-20T22:03:13.672Z,70.70
2019-03-20T22:06:38.460Z,70.50
2019-03-20T22:09:21.139Z,70.70
2019-03-20T22:12:18.052Z,70.50
2019-03-20T22:14:55.286Z,69.80
2019-03-20T22:17:53.362Z,70.00
2019-03-20T22:20:48.601Z,70.00
2019-03-20T22:23:43.129Z,70.00
2019-03-20T22:26:54.542Z,70.20
2019-03-20T22:29:26.731Z,70.90
2019-03-20T22:32:40.856Z,71.50
2019-03-20T22:36:02.738Z,72.20
2019-03-20T22:39:21.279Z,71.80
2019-03-20T22:42:19.436Z,71.80
2019-03-20T22:45:29.837Z,72.20
2019-03-20T22:48:39.145Z,73.20
2019-03-20T22:51:25.586Z,73.20
2019-03-20T22:54:21.681Z,73.30
2019-03-20T22:57:33.263Z,73.90
2019-03-20T23:00:01.284Z,74.30
2019-03-20T23:02:53.308Z,75.00
2019-03-20T23:05:21.409Z,75.60
2019-03-20T23:07:49.510Z,75.90
2019-03-20T23:10:17.546Z,75.80
2019-03-20T23:12:46.954Z,75.90
2019-03-20T23:15:16.006Z,75.90
2019-03-20T23:17:44.057Z,76.10
2019-03-20T23:20:14.078Z,76.30
2019-03-20T23:22:42.258Z,76.30
2019-03-20T23:25:10.632Z,75.90
2019-03-20T23:27:39.174Z,76.10
2019-03-20T23:30:11.511Z,76.10
2019-03-20T23:32:39.617Z,76.30
2019-03-20T23:35:08.654Z,76.30
2019-03-20T23:37:36.800Z,76.10
2019-03-20T23:40:06.325Z,75.80
2019-03-20T23:42:34.435Z,76.10
2019-03-20T23:45:02.568Z,75.60
2019-03-20T23:47:58.060Z,76.30
2019-03-20T23:50:26.187Z,76.50
2019-03-20T23:52:55.257Z,77.30
2019-03-20T23:55:23.474Z,77.30
2019-03-20T23:57:51.631Z,77.10
